sensor_id;sensor_type;location;lat;lon;timestamp;P1;durP1;ratioP1;P2;durP2;ratioP2
22565;SDS011;11449;51.330;19.378;2023-12-28T00:03:25;793.90;;;725.30;;
22565;SDS011;11449;51.330;19.378;2023-12-28T00:08:29;827.60;;;757.00;;
22565;SDS011;11449;51.330;19.378;2023-12-28T00:13:39;919.90;;;847.40;;
22565;SDS011;11449;51.330;19.378;2023-12-28T00:18:46;902.60;;;833.60;;
22565;SDS011;11449;51.330;19.378;2023-12-28T00:23:54;916.40;;;845.40;;
22565;SDS011;11449;51.330;19.378;2023-12-28T00:29:02;905.50;;;835.30;;
22565;SDS011;11449;51.330;19.378;2023-12-28T00:34:09;915.70;;;844.70;;
22565;SDS011;11449;51.330;19.378;2023-12-28T00:39:14;915.90;;;841.20;;
22565;SDS011;11449;51.330;19.378;2023-12-28T00:44:17;914.40;;;840.10;;
22565;SDS011;11449;51.330;19.378;2023-12-28T00:49:21;918.70;;;846.90;;
22565;SDS011;11449;51.330;19.378;2023-12-28T00:54:29;930.00;;;859.40;;
22565;SDS011;11449;51.330;19.378;2023-12-28T00:59:36;923.70;;;854.60;;
22565;SDS011;11449;51.330;19.378;2023-12-28T01:04:44;934.20;;;863.80;;
22565;SDS011;11449;51.330;19.378;2023-12-28T01:09:52;933.90;;;862.70;;
22565;SDS011;11449;51.330;19.378;2023-12-28T01:15:00;927.70;;;857.30;;
22565;SDS011;11449;51.330;19.378;2023-12-28T01:20:08;921.60;;;850.90;;
22565;SDS011;11449;51.330;19.378;2023-12-28T01:25:15;895.00;;;824.00;;
22565;SDS011;11449;51.330;19.378;2023-12-28T01:30:23;857.90;;;786.80;;
22565;SDS011;11449;51.330;19.378;2023-12-28T01:35:31;850.10;;;783.80;;
22565;SDS011;11449;51.330;19.378;2023-12-28T01:40:44;837.10;;;772.00;;
22565;SDS011;11449;51.330;19.378;2023-12-28T01:45:51;774.80;;;712.00;;
22565;SDS011;11449;51.330;19.378;2023-12-28T01:50:59;764.10;;;701.40;;
22565;SDS011;11449;51.330;19.378;2023-12-28T01:56:02;480.10;;;427.70;;
22565;SDS011;11449;51.330;19.378;2023-12-28T02:01:06;630.20;;;569.10;;
22565;SDS011;11449;51.330;19.378;2023-12-28T02:06:14;716.30;;;651.00;;
22565;SDS011;11449;51.330;19.378;2023-12-28T02:11:25;685.40;;;623.00;;
22565;SDS011;11449;51.330;19.378;2023-12-28T02:16:33;695.90;;;635.90;;
22565;SDS011;11449;51.330;19.378;2023-12-28T02:21:38;799.00;;;732.40;;
22565;SDS011;11449;51.330;19.378;2023-12-28T02:26:46;905.10;;;836.20;;
22565;SDS011;11449;51.330;19.378;2023-12-28T02:31:58;880.90;;;813.40;;
22565;SDS011;11449;51.330;19.378;2023-12-28T02:37:08;892.60;;;824.00;;
22565;SDS011;11449;51.330;19.378;2023-12-28T02:42:11;910.40;;;839.30;;
22565;SDS011;11449;51.330;19.378;2023-12-28T02:47:19;915.00;;;843.40;;
22565;SDS011;11449;51.330;19.378;2023-12-28T02:52:27;893.80;;;824.30;;
22565;SDS011;11449;51.330;19.378;2023-12-28T02:57:30;917.70;;;847.80;;
22565;SDS011;11449;51.330;19.378;2023-12-28T03:02:35;902.80;;;835.30;;
22565;SDS011;11449;51.330;19.378;2023-12-28T03:07:44;911.70;;;841.40;;
22565;SDS011;11449;51.330;19.378;2023-12-28T03:12:49;918.50;;;848.70;;
22565;SDS011;11449;51.330;19.378;2023-12-28T03:17:58;914.60;;;846.10;;
22565;SDS011;11449;51.330;19.378;2023-12-28T03:23:06;914.50;;;846.50;;
22565;SDS011;11449;51.330;19.378;2023-12-28T03:28:13;921.90;;;850.20;;
22565;SDS011;11449;51.330;19.378;2023-12-28T03:33:22;942.00;;;867.90;;
22565;SDS011;11449;51.330;19.378;2023-12-28T03:38:27;930.60;;;858.40;;
22565;SDS011;11449;51.330;19.378;2023-12-28T03:43:34;935.30;;;865.50;;
22565;SDS011;11449;51.330;19.378;2023-12-28T03:48:37;929.10;;;858.70;;
22565;SDS011;11449;51.330;19.378;2023-12-28T03:53:46;945.50;;;875.10;;
22565;SDS011;11449;51.330;19.378;2023-12-28T03:58:54;951.00;;;880.70;;
22565;SDS011;11449;51.330;19.378;2023-12-28T04:04:02;937.10;;;867.30;;
22565;SDS011;11449;51.330;19.378;2023-12-28T04:09:12;952.80;;;880.20;;
22565;SDS011;11449;51.330;19.378;2023-12-28T04:14:17;953.50;;;879.20;;
22565;SDS011;11449;51.330;19.378;2023-12-28T04:19:25;958.70;;;884.70;;
22565;SDS011;11449;51.330;19.378;2023-12-28T04:24:29;954.20;;;882.80;;
22565;SDS011;11449;51.330;19.378;2023-12-28T04:29:37;954.30;;;882.50;;
22565;SDS011;11449;51.330;19.378;2023-12-28T04:34:45;962.80;;;889.80;;
22565;SDS011;11449;51.330;19.378;2023-12-28T04:39:53;961.10;;;888.30;;
22565;SDS011;11449;51.330;19.378;2023-12-28T04:44:56;960.50;;;887.50;;
22565;SDS011;11449;51.330;19.378;2023-12-28T04:50:06;967.10;;;893.70;;
22565;SDS011;11449;51.330;19.378;2023-12-28T04:55:14;972.70;;;897.30;;
22565;SDS011;11449;51.330;19.378;2023-12-28T05:00:22;978.00;;;899.20;;
22565;SDS011;11449;51.330;19.378;2023-12-28T05:05:29;971.80;;;897.90;;
22565;SDS011;11449;51.330;19.378;2023-12-28T05:10:33;968.20;;;895.70;;
22565;SDS011;11449;51.330;19.378;2023-12-28T05:15:36;970.20;;;895.40;;
22565;SDS011;11449;51.330;19.378;2023-12-28T05:20:39;971.40;;;895.80;;
22565;SDS011;11449;51.330;19.378;2023-12-28T05:25:47;978.30;;;904.90;;
22565;SDS011;11449;51.330;19.378;2023-12-28T05:30:55;972.10;;;898.80;;
22565;SDS011;11449;51.330;19.378;2023-12-28T05:36:04;969.90;;;896.80;;
22565;SDS011;11449;51.330;19.378;2023-12-28T05:41:11;966.10;;;892.90;;
22565;SDS011;11449;51.330;19.378;2023-12-28T05:46:14;981.30;;;904.40;;
22565;SDS011;11449;51.330;19.378;2023-12-28T05:51:22;980.20;;;902.90;;
22565;SDS011;11449;51.330;19.378;2023-12-28T05:56:30;972.20;;;897.80;;
22565;SDS011;11449;51.330;19.378;2023-12-28T06:01:41;997.50;;;917.10;;
22565;SDS011;11449;51.330;19.378;2023-12-28T06:06:49;982.90;;;906.70;;
22565;SDS011;11449;51.330;19.378;2023-12-28T06:11:58;978.90;;;903.30;;
22565;SDS011;11449;51.330;19.378;2023-12-28T06:17:06;988.50;;;913.50;;
22565;SDS011;11449;51.330;19.378;2023-12-28T06:22:14;985.40;;;907.90;;
22565;SDS011;11449;51.330;19.378;2023-12-28T06:27:17;994.50;;;915.80;;
22565;SDS011;11449;51.330;19.378;2023-12-28T06:32:21;1005.10;;;926.20;;
22565;SDS011;11449;51.330;19.378;2023-12-28T06:37:28;996.70;;;920.40;;
22565;SDS011;11449;51.330;19.378;2023-12-28T06:42:36;988.40;;;913.10;;
22565;SDS011;11449;51.330;19.378;2023-12-28T06:47:44;987.70;;;913.00;;
22565;SDS011;11449;51.330;19.378;2023-12-28T06:52:52;994.80;;;917.40;;
22565;SDS011;11449;51.330;19.378;2023-12-28T06:57:59;989.30;;;913.00;;
22565;SDS011;11449;51.330;19.378;2023-12-28T07:03:07;987.60;;;912.20;;
22565;SDS011;11449;51.330;19.378;2023-12-28T07:08:15;1009.90;;;930.60;;
22565;SDS011;11449;51.330;19.378;2023-12-28T07:13:19;1002.00;;;921.90;;
22565;SDS011;11449;51.330;19.378;2023-12-28T07:18:27;993.00;;;916.00;;
22565;SDS011;11449;51.330;19.378;2023-12-28T07:23:34;997.40;;;920.90;;
22565;SDS011;11449;51.330;19.378;2023-12-28T07:28:42;984.10;;;908.70;;
22565;SDS011;11449;51.330;19.378;2023-12-28T07:33:52;983.30;;;907.20;;
22565;SDS011;11449;51.330;19.378;2023-12-28T07:39:00;987.00;;;911.10;;
22565;SDS011;11449;51.330;19.378;2023-12-28T07:44:07;990.90;;;914.30;;
22565;SDS011;11449;51.330;19.378;2023-12-28T07:49:15;1016.80;;;936.10;;
22565;SDS011;11449;51.330;19.378;2023-12-28T07:54:23;985.00;;;908.40;;
22565;SDS011;11449;51.330;19.378;2023-12-28T07:59:31;989.40;;;913.90;;
22565;SDS011;11449;51.330;19.378;2023-12-28T08:04:38;991.00;;;916.00;;
22565;SDS011;11449;51.330;19.378;2023-12-28T08:09:46;1049.10;;;968.50;;
22565;SDS011;11449;51.330;19.378;2023-12-28T08:14:54;995.90;;;921.60;;
22565;SDS011;11449;51.330;19.378;2023-12-28T08:20:02;994.70;;;919.30;;
22565;SDS011;11449;51.330;19.378;2023-12-28T08:25:10;997.80;;;920.80;;
22565;SDS011;11449;51.330;19.378;2023-12-28T08:30:13;989.40;;;914.30;;
22565;SDS011;11449;51.330;19.378;2023-12-28T08:35:22;915.40;;;844.60;;
22565;SDS011;11449;51.330;19.378;2023-12-28T08:40:25;991.40;;;914.60;;
22565;SDS011;11449;51.330;19.378;2023-12-28T08:45:33;950.30;;;878.30;;
22565;SDS011;11449;51.330;19.378;2023-12-28T08:50:43;996.60;;;924.80;;
22565;SDS011;11449;51.330;19.378;2023-12-28T08:55:50;1012.50;;;937.90;;
22565;SDS011;11449;51.330;19.378;2023-12-28T09:00:58;1018.70;;;944.30;;
22565;SDS011;11449;51.330;19.378;2023-12-28T09:06:06;1035.50;;;959.70;;
22565;SDS011;11449;51.330;19.378;2023-12-28T09:11:10;1038.10;;;960.60;;
22565;SDS011;11449;51.330;19.378;2023-12-28T09:16:19;1037.20;;;958.30;;
22565;SDS011;11449;51.330;19.378;2023-12-28T09:21:22;1040.80;;;961.00;;
22565;SDS011;11449;51.330;19.378;2023-12-28T09:26:30;1034.60;;;957.30;;
22565;SDS011;11449;51.330;19.378;2023-12-28T09:31:39;1055.20;;;971.00;;
22565;SDS011;11449;51.330;19.378;2023-12-28T09:36:47;1041.80;;;962.70;;
22565;SDS011;11449;51.330;19.378;2023-12-28T09:41:55;1029.30;;;951.60;;
22565;SDS011;11449;51.330;19.378;2023-12-28T09:47:04;1033.20;;;955.90;;
22565;SDS011;11449;51.330;19.378;2023-12-28T09:52:14;1062.10;;;980.00;;
22565;SDS011;11449;51.330;19.378;2023-12-28T09:57:22;1042.40;;;961.00;;
22565;SDS011;11449;51.330;19.378;2023-12-28T10:02:31;1043.10;;;964.10;;
22565;SDS011;11449;51.330;19.378;2023-12-28T10:07:40;1046.60;;;967.10;;
22565;SDS011;11449;51.330;19.378;2023-12-28T10:12:49;1038.40;;;959.90;;
22565;SDS011;11449;51.330;19.378;2023-12-28T10:17:56;1048.70;;;969.50;;
22565;SDS011;11449;51.330;19.378;2023-12-28T10:23:04;1041.40;;;961.90;;
22565;SDS011;11449;51.330;19.378;2023-12-28T10:28:21;1070.10;;;986.00;;
22565;SDS011;11449;51.330;19.378;2023-12-28T10:33:36;1049.00;;;970.10;;
22565;SDS011;11449;51.330;19.378;2023-12-28T10:38:44;1057.80;;;976.90;;
22565;SDS011;11449;51.330;19.378;2023-12-28T10:44:02;1051.40;;;970.20;;
22565;SDS011;11449;51.330;19.378;2023-12-28T10:49:11;1050.50;;;968.90;;
22565;SDS011;11449;51.330;19.378;2023-12-28T10:54:28;1062.60;;;976.90;;
22565;SDS011;11449;51.330;19.378;2023-12-28T11:04:51;1058.80;;;977.00;;
22565;SDS011;11449;51.330;19.378;2023-12-28T11:10:01;1044.40;;;963.70;;
22565;SDS011;11449;51.330;19.378;2023-12-28T11:15:09;1052.50;;;970.80;;
22565;SDS011;11449;51.330;19.378;2023-12-28T11:20:17;1059.30;;;976.00;;
22565;SDS011;11449;51.330;19.378;2023-12-28T11:25:20;1029.90;;;946.50;;
22565;SDS011;11449;51.330;19.378;2023-12-28T11:30:29;1067.40;;;981.20;;
22565;SDS011;11449;51.330;19.378;2023-12-28T11:35:40;1039.10;;;959.30;;
22565;SDS011;11449;51.330;19.378;2023-12-28T11:45:55;1048.60;;;968.30;;
22565;SDS011;11449;51.330;19.378;2023-12-28T11:51:03;1060.90;;;976.40;;
22565;SDS011;11449;51.330;19.378;2023-12-28T11:56:11;1055.70;;;973.50;;
22565;SDS011;11449;51.330;19.378;2023-12-28T12:01:19;1053.60;;;971.40;;
22565;SDS011;11449;51.330;19.378;2023-12-28T12:06:28;1062.50;;;981.30;;
22565;SDS011;11449;51.330;19.378;2023-12-28T12:11:36;1063.40;;;978.70;;
22565;SDS011;11449;51.330;19.378;2023-12-28T12:16:45;1051.80;;;971.20;;
22565;SDS011;11449;51.330;19.378;2023-12-28T12:21:54;1044.60;;;962.20;;
22565;SDS011;11449;51.330;19.378;2023-12-28T12:27:02;1057.60;;;973.50;;
22565;SDS011;11449;51.330;19.378;2023-12-28T12:32:05;1053.70;;;970.60;;
22565;SDS011;11449;51.330;19.378;2023-12-28T12:37:15;1054.40;;;971.90;;
22565;SDS011;11449;51.330;19.378;2023-12-28T12:42:23;1054.70;;;973.50;;
22565;SDS011;11449;51.330;19.378;2023-12-28T12:47:31;1048.00;;;967.10;;
22565;SDS011;11449;51.330;19.378;2023-12-28T12:52:39;1047.80;;;966.30;;
22565;SDS011;11449;51.330;19.378;2023-12-28T12:57:47;371.40;;;236.20;;
22565;SDS011;11449;51.330;19.378;2023-12-28T13:02:58;423.10;;;260.00;;
22565;SDS011;11449;51.330;19.378;2023-12-28T13:08:06;473.30;;;344.00;;
22565;SDS011;11449;51.330;19.378;2023-12-28T13:13:14;440.20;;;287.40;;
22565;SDS011;11449;51.330;19.378;2023-12-28T13:18:21;403.80;;;251.80;;
22565;SDS011;11449;51.330;19.378;2023-12-28T13:23:29;386.80;;;233.30;;
22565;SDS011;11449;51.330;19.378;2023-12-28T13:28:37;511.50;;;422.80;;
22565;SDS011;11449;51.330;19.378;2023-12-28T13:33:45;590.70;;;527.00;;
22565;SDS011;11449;51.330;19.378;2023-12-28T13:38:53;551.80;;;489.00;;
22565;SDS011;11449;51.330;19.378;2023-12-28T13:44:01;512.10;;;357.30;;
22565;SDS011;11449;51.330;19.378;2023-12-28T13:49:11;438.60;;;272.50;;
22565;SDS011;11449;51.330;19.378;2023-12-28T13:54:19;437.50;;;289.70;;
22565;SDS011;11449;51.330;19.378;2023-12-28T13:59:27;369.20;;;240.80;;
22565;SDS011;11449;51.330;19.378;2023-12-28T14:04:34;446.10;;;280.50;;
22565;SDS011;11449;51.330;19.378;2023-12-28T14:09:43;404.40;;;240.20;;
22565;SDS011;11449;51.330;19.378;2023-12-28T14:14:51;411.20;;;242.00;;
22565;SDS011;11449;51.330;19.378;2023-12-28T14:19:59;564.60;;;504.10;;
22565;SDS011;11449;51.330;19.378;2023-12-28T14:25:06;516.20;;;412.30;;
22565;SDS011;11449;51.330;19.378;2023-12-28T14:30:15;546.50;;;461.40;;
22565;SDS011;11449;51.330;19.378;2023-12-28T14:35:23;560.80;;;502.70;;
22565;SDS011;11449;51.330;19.378;2023-12-28T14:40:30;490.90;;;414.30;;
22565;SDS011;11449;51.330;19.378;2023-12-28T15:03:15;390.10;;;259.60;;
22565;SDS011;11449;51.330;19.378;2023-12-28T15:08:24;439.20;;;303.90;;
22565;SDS011;11449;51.330;19.378;2023-12-28T15:13:32;518.60;;;458.50;;
22565;SDS011;11449;51.330;19.378;2023-12-28T15:18:40;618.70;;;554.30;;
22565;SDS011;11449;51.330;19.378;2023-12-28T15:23:48;691.30;;;619.80;;
22565;SDS011;11449;51.330;19.378;2023-12-28T15:28:51;463.80;;;324.80;;
22565;SDS011;11449;51.330;19.378;2023-12-28T15:33:59;440.60;;;322.90;;
22565;SDS011;11449;51.330;19.378;2023-12-28T15:39:07;374.90;;;258.10;;
22565;SDS011;11449;51.330;19.378;2023-12-28T15:44:15;425.80;;;313.40;;
22565;SDS011;11449;51.330;19.378;2023-12-28T15:49:23;491.90;;;382.90;;
22565;SDS011;11449;51.330;19.378;2023-12-28T15:54:32;1018.90;;;938.90;;
22565;SDS011;11449;51.330;19.378;2023-12-28T15:59:36;1004.70;;;927.00;;
22565;SDS011;11449;51.330;19.378;2023-12-28T16:04:42;985.00;;;910.60;;
22565;SDS011;11449;51.330;19.378;2023-12-28T16:09:45;996.30;;;921.00;;
22565;SDS011;11449;51.330;19.378;2023-12-28T16:14:49;991.80;;;916.10;;
22565;SDS011;11449;51.330;19.378;2023-12-28T16:19:57;995.40;;;917.80;;
22565;SDS011;11449;51.330;19.378;2023-12-28T16:25:01;518.40;;;463.30;;
22565;SDS011;11449;51.330;19.378;2023-12-28T16:30:10;555.90;;;499.20;;
22565;SDS011;11449;51.330;19.378;2023-12-28T16:35:13;568.90;;;507.80;;
22565;SDS011;11449;51.330;19.378;2023-12-28T16:40:21;584.80;;;522.60;;
22565;SDS011;11449;51.330;19.378;2023-12-28T16:45:29;1000.60;;;923.60;;
22565;SDS011;11449;51.330;19.378;2023-12-28T16:50:38;995.10;;;916.80;;
22565;SDS011;11449;51.330;19.378;2023-12-28T16:55:46;994.70;;;918.70;;
22565;SDS011;11449;51.330;19.378;2023-12-28T17:00:54;994.70;;;919.50;;
22565;SDS011;11449;51.330;19.378;2023-12-28T17:05:57;999.00;;;922.50;;
22565;SDS011;11449;51.330;19.378;2023-12-28T17:11:05;1008.50;;;931.60;;
22565;SDS011;11449;51.330;19.378;2023-12-28T17:16:08;1002.90;;;924.60;;
22565;SDS011;11449;51.330;19.378;2023-12-28T17:21:18;1011.80;;;934.60;;
22565;SDS011;11449;51.330;19.378;2023-12-28T17:31:31;1024.70;;;940.30;;
22565;SDS011;11449;51.330;19.378;2023-12-28T17:36:39;1018.40;;;936.40;;
22565;SDS011;11449;51.330;19.378;2023-12-28T17:41:47;1018.30;;;931.60;;
22565;SDS011;11449;51.330;19.378;2023-12-28T17:47:00;995.50;;;916.90;;
22565;SDS011;11449;51.330;19.378;2023-12-28T17:52:11;1017.50;;;934.90;;
22565;SDS011;11449;51.330;19.378;2023-12-28T17:57:16;403.00;;;267.10;;
22565;SDS011;11449;51.330;19.378;2023-12-28T18:02:19;439.30;;;280.20;;
22565;SDS011;11449;51.330;19.378;2023-12-28T18:07:27;518.50;;;344.70;;
22565;SDS011;11449;51.330;19.378;2023-12-28T18:12:35;468.60;;;335.20;;
22565;SDS011;11449;51.330;19.378;2023-12-28T18:17:39;511.80;;;356.00;;
22565;SDS011;11449;51.330;19.378;2023-12-28T18:22:47;471.60;;;327.10;;
22565;SDS011;11449;51.330;19.378;2023-12-28T18:27:51;1012.60;;;932.30;;
22565;SDS011;11449;51.330;19.378;2023-12-28T18:32:56;1010.60;;;930.50;;
22565;SDS011;11449;51.330;19.378;2023-12-28T18:37:59;1010.80;;;931.00;;
22565;SDS011;11449;51.330;19.378;2023-12-28T18:43:04;1001.50;;;922.90;;
22565;SDS011;11449;51.330;19.378;2023-12-28T18:48:12;1024.50;;;940.90;;
22565;SDS011;11449;51.330;19.378;2023-12-28T18:53:16;1022.10;;;939.70;;
22565;SDS011;11449;51.330;19.378;2023-12-28T18:58:23;1013.80;;;931.50;;
22565;SDS011;11449;51.330;19.378;2023-12-28T19:03:32;1013.00;;;931.00;;
22565;SDS011;11449;51.330;19.378;2023-12-28T19:08:35;1010.70;;;928.70;;
22565;SDS011;11449;51.330;19.378;2023-12-28T19:13:38;1008.40;;;925.20;;
22565;SDS011;11449;51.330;19.378;2023-12-28T19:18:47;1010.60;;;929.20;;
22565;SDS011;11449;51.330;19.378;2023-12-28T19:23:53;990.50;;;911.60;;
22565;SDS011;11449;51.330;19.378;2023-12-28T19:28:56;1018.90;;;938.10;;
22565;SDS011;11449;51.330;19.378;2023-12-28T19:34:04;1010.90;;;930.10;;
22565;SDS011;11449;51.330;19.378;2023-12-28T19:39:07;1014.90;;;933.80;;
22565;SDS011;11449;51.330;19.378;2023-12-28T19:44:16;1017.10;;;934.00;;
22565;SDS011;11449;51.330;19.378;2023-12-28T19:49:24;994.70;;;914.30;;
22565;SDS011;11449;51.330;19.378;2023-12-28T19:54:30;836.70;;;759.60;;
22565;SDS011;11449;51.330;19.378;2023-12-28T19:59:33;533.90;;;476.40;;
22565;SDS011;11449;51.330;19.378;2023-12-28T20:04:36;324.10;;;277.30;;
22565;SDS011;11449;51.330;19.378;2023-12-28T20:09:40;88.60;;;22.50;;
22565;SDS011;11449;51.330;19.378;2023-12-28T20:14:44;184.70;;;100.00;;
22565;SDS011;11449;51.330;19.378;2023-12-28T20:19:52;341.00;;;262.10;;
22565;SDS011;11449;51.330;19.378;2023-12-28T20:25:02;444.80;;;365.60;;
22565;SDS011;11449;51.330;19.378;2023-12-28T20:30:10;281.90;;;182.40;;
22565;SDS011;11449;51.330;19.378;2023-12-28T20:35:14;525.20;;;472.10;;
22565;SDS011;11449;51.330;19.378;2023-12-28T20:40:23;572.30;;;514.10;;
22565;SDS011;11449;51.330;19.378;2023-12-28T20:45:27;466.30;;;401.20;;
22565;SDS011;11449;51.330;19.378;2023-12-28T20:50:36;509.60;;;452.30;;
22565;SDS011;11449;51.330;19.378;2023-12-28T20:55:44;525.00;;;470.00;;
22565;SDS011;11449;51.330;19.378;2023-12-28T21:00:48;520.60;;;465.70;;
22565;SDS011;11449;51.330;19.378;2023-12-28T21:05:51;564.80;;;506.00;;
22565;SDS011;11449;51.330;19.378;2023-12-28T21:10:55;561.50;;;505.40;;
22565;SDS011;11449;51.330;19.378;2023-12-28T21:16:06;619.90;;;560.40;;
22565;SDS011;11449;51.330;19.378;2023-12-28T21:21:16;998.90;;;920.30;;
22565;SDS011;11449;51.330;19.378;2023-12-28T21:26:23;974.10;;;900.10;;
22565;SDS011;11449;51.330;19.378;2023-12-28T21:31:32;988.00;;;908.10;;
22565;SDS011;11449;51.330;19.378;2023-12-28T21:36:41;976.10;;;902.40;;
22565;SDS011;11449;51.330;19.378;2023-12-28T21:41:51;952.50;;;878.20;;
22565;SDS011;11449;51.330;19.378;2023-12-28T21:46:59;803.70;;;738.90;;
22565;SDS011;11449;51.330;19.378;2023-12-28T21:52:03;781.00;;;716.60;;
22565;SDS011;11449;51.330;19.378;2023-12-28T21:57:06;658.80;;;598.60;;
22565;SDS011;11449;51.330;19.378;2023-12-28T22:02:15;816.40;;;748.80;;
22565;SDS011;11449;51.330;19.378;2023-12-28T22:07:24;778.90;;;713.80;;
22565;SDS011;11449;51.330;19.378;2023-12-28T22:12:26;902.40;;;829.40;;
22565;SDS011;11449;51.330;19.378;2023-12-28T22:17:34;876.60;;;806.30;;
22565;SDS011;11449;51.330;19.378;2023-12-28T22:22:38;875.10;;;802.60;;
22565;SDS011;11449;51.330;19.378;2023-12-28T22:27:42;909.80;;;839.60;;
22565;SDS011;11449;51.330;19.378;2023-12-28T22:32:45;890.10;;;820.50;;
22565;SDS011;11449;51.330;19.378;2023-12-28T22:37:48;892.00;;;823.40;;
22565;SDS011;11449;51.330;19.378;2023-12-28T22:42:51;886.60;;;818.40;;
22565;SDS011;11449;51.330;19.378;2023-12-28T22:47:59;894.30;;;825.40;;
22565;SDS011;11449;51.330;19.378;2023-12-28T22:53:03;897.20;;;828.20;;
22565;SDS011;11449;51.330;19.378;2023-12-28T22:58:11;926.40;;;855.50;;
22565;SDS011;11449;51.330;19.378;2023-12-28T23:03:14;897.20;;;828.20;;
22565;SDS011;11449;51.330;19.378;2023-12-28T23:08:22;882.90;;;815.00;;
22565;SDS011;11449;51.330;19.378;2023-12-28T23:13:26;412.70;;;300.80;;
22565;SDS011;11449;51.330;19.378;2023-12-28T23:18:34;360.20;;;230.90;;
22565;SDS011;11449;51.330;19.378;2023-12-28T23:23:42;659.00;;;600.30;;
22565;SDS011;11449;51.330;19.378;2023-12-28T23:28:50;537.70;;;488.00;;
22565;SDS011;11449;51.330;19.378;2023-12-28T23:33:59;801.10;;;737.80;;
22565;SDS011;11449;51.330;19.378;2023-12-28T23:39:08;818.10;;;752.90;;
22565;SDS011;11449;51.330;19.378;2023-12-28T23:44:17;796.80;;;732.50;;
22565;SDS011;11449;51.330;19.378;2023-12-28T23:49:26;822.40;;;756.60;;
22565;SDS011;11449;51.330;19.378;2023-12-28T23:54:34;555.40;;;504.10;;
22565;SDS011;11449;51.330;19.378;2023-12-28T23:59:46;117.20;;;40.50;;
